Time;durP1;ratioP1;P1;durP2;ratioP2;P2;SDS_P1;SDS_P2;PMS_P1;PMS_P2;Temp;Humidity;BMP_temperature;BMP_pressure;BME280_temperature;BME280_humidity;BME280_pressure;Samples;Min_cycle;Max_cycle;Signal;HPM_P1;HPM_P2
2021/12/24 00:00:20;;;;;;;8.32;5.40;;;3.90;99.90;;;;;;5062336;28;20686;-73
2021/12/24 00:02:49;;;;;;;6.32;4.97;;;3.90;99.90;;;;;;5083761;28;20592;-72
2021/12/24 00:05:18;;;;;;;10.32;5.10;;;3.90;99.90;;;;;;5071726;28;20280;-73
2021/12/24 00:07:47;;;;;;;5.50;4.65;;;3.90;99.90;;;;;;5072276;28;20192;-73
2021/12/24 00:10:15;;;;;;;6.90;5.30;;;3.90;99.90;;;;;;5072034;28;20697;-72
2021/12/24 00:12:47;;;;;;;8.50;5.53;;;3.90;99.90;;;;;;5072582;28;20414;-74
2021/12/24 00:15:47;;;;;;;8.40;5.20;;;3.90;99.90;;;;;;5061782;28;20282;-73
2021/12/24 00:18:23;;;;;;;8.68;6.30;;;3.90;99.90;;;;;;5082735;28;20188;-73
2021/12/24 00:37:49;;;;;;;7.20;5.70;;;3.90;99.90;;;;;;5038788;28;20222;-73
2021/12/24 00:40:20;;;;;;;7.70;5.28;;;3.90;99.90;;;;;;5065096;28;20218;-74
2021/12/24 00:42:50;;;;;;;7.00;5.10;;;3.90;99.90;;;;;;5063987;28;20216;-73
2021/12/24 00:45:21;;;;;;;9.70;5.65;;;3.90;99.90;;;;;;5054394;28;20216;-73
2021/12/24 00:47:50;;;;;;;7.05;5.40;;;3.90;99.90;;;;;;5071683;28;20199;-73
2021/12/24 00:50:23;;;;;;;6.15;5.00;;;3.90;99.90;;;;;;5070346;28;20212;-74
2021/12/24 00:52:57;;;;;;;9.00;5.93;;;4.00;99.90;;;;;;5070267;28;20212;-74
2021/12/24 00:55:26;;;;;;;6.60;4.65;;;4.00;99.90;;;;;;5064152;28;20557;-74
2021/12/24 00:57:57;;;;;;;8.10;5.05;;;4.00;99.90;;;;;;5070469;28;20569;-73
2021/12/24 01:00:28;;;;;;;5.85;5.05;;;4.00;99.90;;;;;;5040707;28;20232;-73
2021/12/24 01:03:00;;;;;;;8.68;5.43;;;4.00;99.90;;;;;;5063402;28;20209;-74
2021/12/24 01:05:32;;;;;;;7.50;5.18;;;4.00;99.90;;;;;;5030633;28;20221;-72
2021/12/24 01:08:02;;;;;;;8.30;4.95;;;4.00;99.90;;;;;;5035604;28;20239;-73
2021/12/24 01:10:32;;;;;;;6.88;5.38;;;4.00;99.90;;;;;;5042696;28;20228;-75
2021/12/24 01:13:01;;;;;;;6.85;5.53;;;4.00;99.90;;;;;;5050795;28;20613;-73
2021/12/24 01:15:30;;;;;;;7.80;5.68;;;4.00;99.90;;;;;;5047721;28;20550;-72
2021/12/24 01:18:06;;;;;;;6.68;4.72;;;4.00;99.90;;;;;;5035015;28;20185;-74
2021/12/24 01:20:42;;;;;;;6.15;4.97;;;4.00;99.90;;;;;;5050500;28;20664;-73
2021/12/24 01:23:36;;;;;;;5.82;4.78;;;4.00;99.90;;;;;;5049618;28;20559;-73
2021/12/24 01:26:08;;;;;;;7.10;5.20;;;4.00;99.90;;;;;;5047264;28;20742;-73
2021/12/24 01:28:59;;;;;;;5.75;5.15;;;4.00;99.90;;;;;;5051071;28;20228;-73
2021/12/24 01:40:05;;;;;;;7.55;5.10;;;4.10;99.90;;;;;;5050829;28;20306;-74
2021/12/24 01:42:44;;;;;;;5.50;4.53;;;4.10;99.90;;;;;;5048166;28;20695;-73
2021/12/24 01:45:18;;;;;;;4.80;4.30;;;4.10;99.90;;;;;;5053638;28;20223;-74
2021/12/24 01:47:48;;;;;;;6.15;5.10;;;4.10;99.90;;;;;;5072427;28;20203;-73
2021/12/24 01:50:19;;;;;;;7.55;5.25;;;4.10;99.90;;;;;;5069726;28;20224;-73
2021/12/24 01:52:49;;;;;;;6.10;4.70;;;4.10;99.90;;;;;;5052304;28;20314;-73
2021/12/24 01:55:20;;;;;;;6.43;4.90;;;4.10;99.90;;;;;;5069473;28;20212;-74
2021/12/24 01:57:48;;;;;;;6.35;4.85;;;4.10;99.90;;;;;;5069800;28;20221;-73
2021/12/24 02:00:19;;;;;;;6.75;4.47;;;4.10;99.90;;;;;;5066423;28;20220;-72
2021/12/24 02:02:48;;;;;;;5.43;4.22;;;4.10;99.90;;;;;;5070284;28;20227;-73
2021/12/24 02:05:17;;;;;;;7.53;4.22;;;4.10;99.90;;;;;;5054291;28;20212;-73
2021/12/24 02:07:46;;;;;;;5.82;4.20;;;4.10;99.90;;;;;;5070348;28;20190;-73
2021/12/24 02:10:15;;;;;;;4.60;3.75;;;4.10;99.90;;;;;;5055159;28;20235;-74
2021/12/24 02:12:45;;;;;;;5.75;4.78;;;4.20;99.90;;;;;;5070924;28;20211;-72
2021/12/24 02:15:23;;;;;;;5.15;4.25;;;4.20;99.90;;;;;;5068248;28;20223;-72
2021/12/24 02:18:16;;;;;;;5.43;4.93;;;4.20;99.90;;;;;;5071533;28;20191;-73
2021/12/24 02:29:06;;;;;;;5.70;4.60;;;4.20;99.90;;;;;;5071243;28;20208;-73
2021/12/24 02:31:35;;;;;;;8.05;4.18;;;4.20;99.90;;;;;;5057476;28;20249;-73
2021/12/24 02:34:03;;;;;;;5.25;4.15;;;4.20;99.90;;;;;;5073791;28;20219;-73
2021/12/24 02:36:33;;;;;;;6.20;5.28;;;4.20;99.90;;;;;;5073525;28;20242;-73
2021/12/24 02:39:03;;;;;;;4.03;3.63;;;4.20;99.90;;;;;;5072046;28;20227;-74
2021/12/24 02:41:31;;;;;;;6.80;4.95;;;4.20;99.90;;;;;;5086120;28;20557;-74
2021/12/24 02:43:59;;;;;;;6.75;5.00;;;4.20;99.90;;;;;;5071291;28;20681;-73
2021/12/24 02:46:33;;;;;;;4.68;4.20;;;4.20;99.90;;;;;;5088492;28;20794;-73
2021/12/24 02:49:08;;;;;;;6.20;5.15;;;4.20;99.90;;;;;;5073757;28;20269;-73
2021/12/24 02:54:27;;;;;;;5.78;4.95;;;4.20;99.90;;;;;;5041466;28;20212;-72
2021/12/24 02:57:06;;;;;;;7.38;5.05;;;4.20;99.90;;;;;;5078316;28;20207;-73
2021/12/24 02:59:36;;;;;;;5.45;4.63;;;4.20;99.90;;;;;;5066769;28;20220;-73
2021/12/24 03:02:05;;;;;;;5.95;4.40;;;4.20;99.90;;;;;;5075810;28;20188;-73
2021/12/24 03:04:33;;;;;;;6.53;4.18;;;4.20;99.90;;;;;;5070114;28;20223;-74
2021/12/24 03:07:05;;;;;;;7.20;4.57;;;4.20;99.90;;;;;;5053354;28;20196;-73
2021/12/24 03:09:34;;;;;;;6.72;4.38;;;4.20;99.90;;;;;;5069612;28;20222;-74
2021/12/24 03:12:02;;;;;;;5.63;4.97;;;4.30;99.90;;;;;;5088860;28;20192;-73
2021/12/24 03:14:30;;;;;;;5.20;4.63;;;4.30;99.90;;;;;;5074361;28;20205;-73
2021/12/24 03:17:01;;;;;;;6.93;4.43;;;4.30;99.90;;;;;;5072747;28;20195;-74
2021/12/24 03:19:32;;;;;;;4.63;4.22;;;4.30;99.90;;;;;;5076293;28;20208;-72
2021/12/24 03:22:12;;;;;;;5.20;3.50;;;4.30;99.90;;;;;;5071384;28;20200;-73
2021/12/24 03:24:42;;;;;;;5.68;4.32;;;4.30;99.90;;;;;;5060868;28;20701;-73
2021/12/24 03:27:12;;;;;;;6.10;4.38;;;4.30;99.90;;;;;;5064811;28;20188;-73
2021/12/24 03:29:41;;;;;;;7.63;5.15;;;4.30;99.90;;;;;;5071594;28;20231;-73
2021/12/24 03:32:10;;;;;;;6.15;4.18;;;4.30;99.90;;;;;;5056717;28;20203;-72
2021/12/24 03:34:38;;;;;;;5.72;4.20;;;4.30;99.90;;;;;;5056873;28;20705;-74
2021/12/24 03:37:08;;;;;;;5.65;4.65;;;4.30;99.90;;;;;;5071032;28;20202;-73
2021/12/24 03:39:37;;;;;;;5.18;4.32;;;4.30;99.90;;;;;;5060992;28;20225;-74
2021/12/24 03:42:07;;;;;;;6.35;5.07;;;4.30;99.90;;;;;;5076128;28;20192;-73
2021/12/24 03:44:42;;;;;;;5.47;4.07;;;4.30;99.90;;;;;;5061718;28;20756;-74
2021/12/24 03:47:13;;;;;;;6.25;4.00;;;4.30;99.90;;;;;;5063199;28;20202;-73
2021/12/24 03:49:55;;;;;;;6.95;4.60;;;4.30;99.90;;;;;;5080086;28;20670;-74
2021/12/24 03:52:50;;;;;;;6.00;4.50;;;4.30;99.90;;;;;;5045126;28;20203;-73
2021/12/24 03:55:17;;;;;;;5.90;4.47;;;4.30;99.90;;;;;;5064740;28;20563;-73
2021/12/24 03:57:46;;;;;;;5.25;4.75;;;4.30;99.90;;;;;;5073138;28;20267;-73
2021/12/24 04:00:33;;;;;;;5.95;4.95;;;4.30;99.90;;;;;;5046764;28;20231;-73
2021/12/24 04:03:22;;;;;;;6.55;4.40;;;4.40;99.90;;;;;;5048451;28;20224;-72
2021/12/24 04:06:16;;;;;;;5.78;4.13;;;4.40;99.90;;;;;;5050973;28;20231;-73
2021/12/24 04:09:09;;;;;;;6.85;4.63;;;4.40;99.90;;;;;;5040754;28;20219;-73
2021/12/24 04:11:46;;;;;;;7.50;4.45;;;4.40;99.90;;;;;;5065075;28;20204;-73
2021/12/24 04:14:15;;;;;;;6.18;4.38;;;4.40;99.90;;;;;;5059559;28;20224;-73
2021/12/24 04:16:43;;;;;;;6.20;4.60;;;4.40;99.90;;;;;;5056579;28;20184;-73
2021/12/24 04:19:35;;;;;;;5.47;4.28;;;4.40;99.90;;;;;;5060453;28;20212;-73
2021/12/24 04:24:53;;;;;;;4.65;3.30;;;4.40;99.90;;;;;;5050495;28;20274;-73
2021/12/24 04:27:25;;;;;;;5.20;4.07;;;4.40;99.90;;;;;;5051312;28;20192;-74
2021/12/24 04:30:04;;;;;;;6.38;4.38;;;4.40;99.90;;;;;;5060116;28;20681;-74
2021/12/24 04:32:50;;;;;;;4.47;3.97;;;4.40;99.90;;;;;;5064047;28;20220;-73
2021/12/24 04:52:13;;;;;;;7.13;4.70;;;4.40;99.90;;;;;;5050412;28;20207;-73
2021/12/24 05:03:05;;;;;;;5.80;4.28;;;4.50;99.90;;;;;;5049785;28;20210;-73
2021/12/24 05:05:43;;;;;;;6.45;4.40;;;4.50;99.90;;;;;;5038750;28;20543;-74
2021/12/24 05:08:20;;;;;;;7.13;5.18;;;4.50;99.90;;;;;;5038251;28;20656;-74
2021/12/24 05:10:51;;;;;;;6.10;4.15;;;4.50;99.90;;;;;;5045348;28;20185;-73
2021/12/24 05:13:22;;;;;;;4.95;3.90;;;4.50;99.90;;;;;;5066201;28;20220;-73
2021/12/24 05:16:22;;;;;;;6.20;4.18;;;4.50;99.90;;;;;;5031966;28;20267;-73
2021/12/24 05:22:30;;;;;;;4.60;3.88;;;4.50;99.90;;;;;;5047586;28;20271;-74
2021/12/24 05:25:03;;;;;;;7.18;3.95;;;4.50;99.90;;;;;;5044709;28;20298;-73
2021/12/24 05:27:32;;;;;;;5.55;4.30;;;4.50;99.90;;;;;;5051631;28;20211;-74
2021/12/24 05:30:00;;;;;;;4.82;3.88;;;4.50;99.90;;;;;;5058569;28;20224;-73
2021/12/24 05:32:28;;;;;;;5.55;4.72;;;4.50;99.90;;;;;;5040364;28;20185;-73
2021/12/24 05:34:57;;;;;;;6.53;4.45;;;4.50;99.90;;;;;;5064964;28;20653;-73
2021/12/24 05:37:26;;;;;;;4.93;4.30;;;4.50;99.90;;;;;;5047264;28;20259;-73
2021/12/24 05:39:54;;;;;;;5.35;4.45;;;4.50;99.90;;;;;;5050322;28;20307;-72
2021/12/24 05:42:31;;;;;;;5.53;4.40;;;4.50;99.90;;;;;;5049302;28;20184;-73
2021/12/24 05:45:04;;;;;;;6.25;4.60;;;4.50;99.90;;;;;;5057946;28;20283;-73
2021/12/24 05:47:51;;;;;;;5.70;4.88;;;4.50;99.90;;;;;;5032376;28;20654;-73
2021/12/24 05:50:20;;;;;;;4.28;3.80;;;4.50;99.90;;;;;;5065729;28;20216;-73
2021/12/24 05:52:48;;;;;;;6.13;4.28;;;4.50;99.90;;;;;;5043000;28;20216;-74
2021/12/24 05:55:37;;;;;;;4.93;3.72;;;4.50;99.90;;;;;;5049024;28;20216;-72
2021/12/24 05:58:16;;;;;;;5.95;4.38;;;4.50;99.90;;;;;;5066134;28;20231;-73
2021/12/24 06:00:46;;;;;;;6.88;5.43;;;4.50;99.90;;;;;;5060415;28;20231;-74
2021/12/24 06:03:15;;;;;;;6.35;4.18;;;4.50;99.90;;;;;;5052656;28;20208;-74
2021/12/24 06:05:47;;;;;;;5.88;4.50;;;4.50;99.90;;;;;;5053571;28;20250;-73
2021/12/24 06:08:15;;;;;;;5.15;3.88;;;4.50;99.90;;;;;;5053716;28;20195;-74
2021/12/24 06:10:43;;;;;;;5.03;4.50;;;4.50;99.90;;;;;;5055420;28;20188;-72
2021/12/24 06:13:11;;;;;;;4.63;4.00;;;4.60;99.90;;;;;;5054410;28;20208;-74
2021/12/24 06:15:44;;;;;;;5.75;3.67;;;4.60;99.90;;;;;;5045410;28;20323;-74
2021/12/24 06:18:21;;;;;;;5.22;4.25;;;4.60;99.90;;;;;;5054365;28;20281;-73
2021/12/24 06:20:52;;;;;;;6.78;4.63;;;4.60;99.90;;;;;;5054953;28;20192;-73
2021/12/24 06:23:21;;;;;;;6.13;4.53;;;4.60;99.90;;;;;;5054285;28;20239;-73
2021/12/24 06:25:51;;;;;;;6.28;4.10;;;4.60;99.90;;;;;;5053871;28;20235;-72
2021/12/24 06:28:22;;;;;;;8.20;3.92;;;4.60;99.90;;;;;;5054425;28;20228;-72
2021/12/24 06:30:51;;;;;;;4.90;4.15;;;4.60;99.90;;;;;;5049813;28;20570;-73
2021/12/24 06:33:20;;;;;;;5.03;4.43;;;4.60;99.90;;;;;;5053878;28;20642;-72
2021/12/24 06:35:48;;;;;;;5.50;3.72;;;4.60;99.90;;;;;;5054407;28;20665;-73
2021/12/24 06:38:17;;;;;;;5.53;4.40;;;4.60;99.90;;;;;;5048760;28;20192;-73
2021/12/24 06:40:46;;;;;;;5.90;4.75;;;4.60;99.90;;;;;;5052235;28;20246;-73
2021/12/24 06:43:14;;;;;;;4.85;3.70;;;4.60;99.90;;;;;;5054300;28;20215;-73
2021/12/24 06:45:42;;;;;;;9.63;4.35;;;4.60;99.90;;;;;;5048742;28;20608;-72
2021/12/24 06:48:10;;;;;;;8.18;4.35;;;4.60;99.90;;;;;;5053622;28;20201;-72
2021/12/24 06:50:38;;;;;;;5.22;3.80;;;4.60;99.90;;;;;;5054482;28;20208;-74
2021/12/24 06:53:06;;;;;;;5.15;4.75;;;4.60;99.90;;;;;;5053109;28;20251;-73
2021/12/24 06:55:36;;;;;;;5.40;4.07;;;4.60;99.90;;;;;;5043144;28;20220;-73
2021/12/24 06:58:10;;;;;;;5.82;4.20;;;4.60;99.90;;;;;;5052533;28;20202;-72
2021/12/24 07:00:38;;;;;;;4.07;3.65;;;4.60;99.90;;;;;;5049150;28;20196;-73
2021/12/24 07:03:09;;;;;;;6.43;3.92;;;4.60;99.90;;;;;;5053007;28;20547;-73
2021/12/24 07:05:37;;;;;;;7.05;4.60;;;4.60;99.90;;;;;;5053827;28;20219;-73
2021/12/24 07:08:05;;;;;;;5.93;4.32;;;4.70;99.90;;;;;;5042394;28;20193;-73
2021/12/24 07:10:35;;;;;;;4.85;4.20;;;4.70;99.90;;;;;;5051671;28;20685;-73
2021/12/24 07:13:03;;;;;;;5.07;4.35;;;4.70;99.90;;;;;;5051492;28;20208;-71
2021/12/24 07:15:31;;;;;;;6.68;3.95;;;4.70;99.90;;;;;;5061607;28;20201;-73
2021/12/24 07:17:59;;;;;;;6.43;5.07;;;4.70;99.90;;;;;;5054018;28;20294;-73
2021/12/24 07:20:27;;;;;;;6.47;4.88;;;4.70;99.90;;;;;;5053450;28;20570;-72
2021/12/24 07:22:56;;;;;;;5.35;4.82;;;4.70;99.90;;;;;;5053254;28;20270;-72
2021/12/24 07:25:24;;;;;;;5.45;4.30;;;4.70;99.90;;;;;;5053167;28;20220;-74
2021/12/24 07:27:53;;;;;;;5.13;4.32;;;4.70;99.90;;;;;;5053983;28;20212;-72
2021/12/24 07:30:22;;;;;;;5.13;4.63;;;4.70;99.90;;;;;;5066109;28;20220;-72
2021/12/24 07:32:50;;;;;;;5.85;4.20;;;4.70;99.90;;;;;;5051245;28;20637;-72
2021/12/24 07:35:18;;;;;;;4.80;4.13;;;4.70;99.90;;;;;;5037286;28;20762;-73
2021/12/24 07:37:47;;;;;;;5.15;4.10;;;4.70;99.90;;;;;;5035491;28;20238;-73
2021/12/24 07:40:16;;;;;;;5.15;4.15;;;4.70;99.90;;;;;;5053437;28;20220;-72
2021/12/24 07:43:04;;;;;;;5.35;4.38;;;4.70;99.90;;;;;;5053515;28;20709;-71
2021/12/24 07:45:54;;;;;;;5.07;4.38;;;4.70;99.90;;;;;;5052848;28;20274;-72
2021/12/24 07:48:28;;;;;;;6.05;4.70;;;4.70;99.90;;;;;;5052985;28;20220;-70
2021/12/24 07:53:44;;;;;;;5.57;5.03;;;4.70;99.90;;;;;;5040026;28;20602;-72
2021/12/24 07:56:12;;;;;;;4.65;4.15;;;4.70;99.90;;;;;;5049849;28;20246;-73
2021/12/24 07:58:42;;;;;;;5.03;4.05;;;4.70;99.90;;;;;;5052996;28;20216;-72
2021/12/24 08:01:10;;;;;;;5.63;4.47;;;4.70;99.90;;;;;;5049109;28;20192;-72
2021/12/24 08:03:38;;;;;;;4.50;3.80;;;4.70;99.90;;;;;;5053544;28;20631;-72
2021/12/24 08:06:07;;;;;;;4.95;4.38;;;4.80;99.90;;;;;;5033333;28;20185;-72
2021/12/24 08:08:35;;;;;;;4.90;3.72;;;4.80;99.90;;;;;;5049921;28;20303;-73
2021/12/24 08:11:03;;;;;;;6.47;4.20;;;4.80;99.90;;;;;;5054483;28;20381;-72
2021/12/24 08:13:31;;;;;;;6.10;3.67;;;4.80;99.90;;;;;;5052927;28;20736;-72
2021/12/24 08:16:01;;;;;;;4.85;4.10;;;4.70;99.90;;;;;;5051719;28;20559;-73
2021/12/24 08:18:29;;;;;;;7.03;6.32;;;4.80;99.90;;;;;;5051367;28;20208;-72
2021/12/24 08:20:57;;;;;;;6.22;3.80;;;4.80;99.90;;;;;;5045497;28;20266;-73
2021/12/24 08:23:26;;;;;;;5.78;4.00;;;4.80;99.90;;;;;;5041357;28;20726;-73
2021/12/24 08:25:58;;;;;;;8.57;4.10;;;4.80;99.90;;;;;;5069373;28;20242;-73
2021/12/24 08:28:27;;;;;;;6.05;4.43;;;4.80;99.90;;;;;;5052455;28;20228;-73
2021/12/24 08:30:57;;;;;;;6.55;4.70;;;4.80;99.90;;;;;;5041106;28;20201;-72
2021/12/24 08:33:28;;;;;;;4.78;4.10;;;4.80;99.90;;;;;;5033185;28;20274;-73
2021/12/24 08:35:56;;;;;;;5.80;3.90;;;4.80;99.90;;;;;;5040785;28;20204;-73
2021/12/24 08:38:24;;;;;;;5.63;5.00;;;4.80;99.90;;;;;;5043165;28;20225;-72
2021/12/24 08:40:52;;;;;;;5.20;4.63;;;4.80;99.90;;;;;;5034230;28;20197;-72
2021/12/24 08:43:20;;;;;;;4.13;3.72;;;4.80;99.90;;;;;;5033403;28;20233;-71
2021/12/24 08:45:48;;;;;;;5.00;4.30;;;4.80;99.90;;;;;;5033690;28;20204;-72
2021/12/24 08:48:16;;;;;;;7.43;4.90;;;4.80;99.90;;;;;;5043483;28;20213;-73
2021/12/24 08:50:46;;;;;;;9.60;3.50;;;4.80;99.90;;;;;;5053458;28;20193;-71
2021/12/24 08:53:33;;;;;;;5.65;3.90;;;4.80;99.90;;;;;;5052654;28;20231;-70
2021/12/24 08:56:20;;;;;;;5.60;4.55;;;4.80;99.90;;;;;;5052485;28;20203;-73
2021/12/24 08:59:06;;;;;;;4.90;4.40;;;4.80;99.90;;;;;;5052492;28;20234;-73
2021/12/24 09:01:54;;;;;;;7.38;4.53;;;4.90;99.90;;;;;;5046393;28;20203;-71
2021/12/24 09:04:37;;;;;;;4.35;3.95;;;4.90;99.90;;;;;;5032910;28;20297;-73
2021/12/24 09:07:07;;;;;;;5.22;4.72;;;4.90;99.90;;;;;;5059992;28;20205;-72
2021/12/24 09:09:35;;;;;;;5.95;4.50;;;4.90;99.90;;;;;;5050765;28;20231;-72
2021/12/24 09:12:10;;;;;;;4.57;4.15;;;4.90;99.90;;;;;;5052899;28;20258;-72
2021/12/24 09:14:38;;;;;;;6.13;4.03;;;4.90;99.90;;;;;;5038874;28;20242;-72
2021/12/24 09:17:06;;;;;;;5.80;4.65;;;4.90;99.90;;;;;;5051330;28;20195;-73
2021/12/24 09:19:36;;;;;;;4.80;3.97;;;4.90;99.90;;;;;;5051806;28;20227;-72
2021/12/24 09:22:08;;;;;;;6.20;3.90;;;4.90;99.90;;;;;;5052065;28;20192;-70
2021/12/24 09:24:37;;;;;;;5.38;3.42;;;4.90;99.90;;;;;;5045105;28;20235;-71
2021/12/24 09:27:24;;;;;;;4.97;4.18;;;4.90;99.90;;;;;;5052167;28;20332;-73
2021/12/24 09:30:12;;;;;;;5.93;4.00;;;4.90;99.90;;;;;;5042893;28;20757;-72
2021/12/24 09:32:59;;;;;;;5.43;3.88;;;4.90;99.90;;;;;;5032857;28;20351;-70
2021/12/24 09:35:46;;;;;;;4.22;3.80;;;4.90;99.90;;;;;;5049330;28;20219;-74
2021/12/24 09:38:34;;;;;;;4.25;3.85;;;4.90;99.90;;;;;;5050251;28;20223;-73
2021/12/24 09:41:04;;;;;;;7.03;3.70;;;4.90;99.90;;;;;;5065534;28;20184;-71
2021/12/24 09:43:32;;;;;;;5.07;3.70;;;4.90;99.90;;;;;;5051286;28;20228;-72
2021/12/24 09:46:00;;;;;;;4.93;3.88;;;4.90;99.90;;;;;;5050924;28;20239;-73
2021/12/24 09:48:47;;;;;;;5.72;4.13;;;5.00;99.90;;;;;;5051360;28;20234;-73
2021/12/24 09:51:19;;;;;;;5.95;4.10;;;4.90;99.90;;;;;;5051848;28;20212;-72
2021/12/24 09:53:48;;;;;;;4.82;3.88;;;4.90;99.90;;;;;;5047913;28;20247;-72
2021/12/24 09:56:16;;;;;;;4.45;3.70;;;5.00;99.90;;;;;;5051795;28;20655;-72
2021/12/24 09:58:44;;;;;;;4.32;3.70;;;5.00;99.90;;;;;;5051024;28;20224;-73
2021/12/24 10:01:29;;;;;;;5.50;3.67;;;5.00;99.90;;;;;;5051749;28;20206;-72
2021/12/24 10:04:05;;;;;;;5.18;3.88;;;4.90;99.90;;;;;;5051977;28;20227;-72
2021/12/24 10:06:34;;;;;;;4.50;3.85;;;5.00;99.90;;;;;;5052074;28;20608;-72
2021/12/24 10:09:08;;;;;;;4.90;4.35;;;5.00;99.90;;;;;;5050263;28;20274;-72
2021/12/24 10:11:48;;;;;;;5.20;4.38;;;5.00;99.90;;;;;;5032093;28;20206;-72
2021/12/24 10:14:18;;;;;;;4.18;3.78;;;5.00;99.90;;;;;;5049754;28;20216;-71
2021/12/24 10:16:48;;;;;;;3.90;3.50;;;5.00;99.90;;;;;;5032820;28;20193;-74
2021/12/24 10:19:19;;;;;;;5.95;3.75;;;5.00;99.90;;;;;;5035321;28;20213;-72
2021/12/24 10:21:49;;;;;;;5.70;4.20;;;5.00;99.90;;;;;;5068534;28;20223;-72
2021/12/24 10:24:20;;;;;;;7.28;3.75;;;5.00;99.90;;;;;;5051424;28;20221;-72
2021/12/24 10:26:50;;;;;;;4.53;3.50;;;5.00;99.90;;;;;;5053228;28;20662;-74
2021/12/24 10:29:20;;;;;;;4.55;3.08;;;5.00;99.90;;;;;;5048009;28;20325;-72
2021/12/24 10:31:51;;;;;;;3.78;3.42;;;5.00;99.90;;;;;;5048494;28;20213;-72
2021/12/24 10:34:23;;;;;;;4.60;3.85;;;5.00;99.90;;;;;;5031767;28;20217;-72
2021/12/24 10:37:14;;;;;;;4.15;3.78;;;5.10;99.90;;;;;;5032503;28;20185;-73
2021/12/24 10:39:51;;;;;;;5.15;3.55;;;5.10;99.90;;;;;;5040577;28;20292;-72
2021/12/24 10:42:24;;;;;;;5.55;3.55;;;5.10;99.90;;;;;;5054743;28;20208;-72
2021/12/24 10:44:56;;;;;;;6.03;3.05;;;5.10;99.90;;;;;;5044480;28;20224;-72
2021/12/24 10:47:26;;;;;;;4.65;4.00;;;5.10;99.90;;;;;;5031634;28;20690;-73
2021/12/24 10:55:30;;;;;;;4.78;4.18;;;5.10;99.90;;;;;;5035317;28;20225;-71
2021/12/24 10:58:00;;;;;;;6.63;3.90;;;5.10;99.90;;;;;;5037260;28;20185;-73
2021/12/24 11:00:32;;;;;;;4.82;3.40;;;5.10;99.90;;;;;;5043229;28;20255;-72
2021/12/24 11:03:04;;;;;;;6.03;3.70;;;5.20;99.90;;;;;;5037833;28;20213;-70
2021/12/24 11:05:35;;;;;;;6.22;4.05;;;5.20;99.90;;;;;;5053400;28;20185;-70
2021/12/24 11:08:06;;;;;;;5.30;3.00;;;5.10;99.90;;;;;;5049517;28;20278;-72
2021/12/24 11:10:38;;;;;;;9.52;4.10;;;5.20;99.90;;;;;;5048709;28;20189;-71
2021/12/24 11:13:11;;;;;;;5.18;3.33;;;5.20;99.90;;;;;;5055692;28;20713;-71
2021/12/24 11:15:45;;;;;;;7.90;4.50;;;5.20;99.90;;;;;;5052795;28;20666;-72
2021/12/24 11:18:20;;;;;;;5.80;4.18;;;5.20;99.90;;;;;;5054528;28;20262;-72
2021/12/24 11:20:53;;;;;;;5.22;3.25;;;5.20;99.90;;;;;;5055089;28;20188;-72
2021/12/24 11:23:23;;;;;;;5.32;3.80;;;5.20;99.90;;;;;;5053241;28;20628;-71
2021/12/24 11:25:55;;;;;;;3.88;3.17;;;5.20;99.90;;;;;;5054654;28;20214;-71
2021/12/24 11:28:25;;;;;;;7.07;4.43;;;5.20;99.90;;;;;;5052069;28;20231;-73
2021/12/24 11:30:58;;;;;;;4.43;3.45;;;5.20;99.90;;;;;;5052636;28;20231;-72
2021/12/24 11:33:29;;;;;;;4.68;4.03;;;5.20;99.90;;;;;;5069493;28;20224;-71
2021/12/24 11:36:00;;;;;;;3.58;3.10;;;5.20;99.90;;;;;;5069460;28;20193;-70
2021/12/24 11:38:32;;;;;;;3.90;3.33;;;5.20;99.90;;;;;;5048026;28;20231;-74
2021/12/24 11:41:04;;;;;;;3.70;3.40;;;5.20;99.90;;;;;;5042119;28;20194;-70
2021/12/24 11:43:35;;;;;;;6.03;3.00;;;5.20;99.90;;;;;;5038136;28;20281;-72
2021/12/24 11:46:05;;;;;;;8.95;3.60;;;5.30;99.90;;;;;;5067254;28;20203;-72
2021/12/24 11:48:34;;;;;;;5.90;3.70;;;5.20;99.90;;;;;;5072074;28;20249;-73
2021/12/24 11:51:07;;;;;;;4.65;3.40;;;5.20;99.90;;;;;;5073491;28;20196;-72
2021/12/24 11:53:37;;;;;;;6.07;3.95;;;5.20;99.90;;;;;;5082032;28;20319;-72
2021/12/24 11:56:10;;;;;;;6.40;3.60;;;5.30;99.90;;;;;;5053875;28;20605;-72
2021/12/24 11:58:43;;;;;;;6.30;3.90;;;5.30;99.90;;;;;;5035680;28;20216;-73
2021/12/24 12:01:14;;;;;;;6.88;4.93;;;5.30;99.90;;;;;;5047338;28;20196;-73
2021/12/24 12:03:46;;;;;;;7.30;3.80;;;5.50;99.90;;;;;;5058837;28;20229;-72
2021/12/24 12:06:35;;;;;;;9.63;3.65;;;5.70;99.90;;;;;;5050148;28;20189;-72
2021/12/24 12:09:06;;;;;;;10.15;3.80;;;5.80;99.90;;;;;;5034034;28;20327;-73
2021/12/24 12:11:39;;;;;;;5.43;3.70;;;5.70;99.90;;;;;;5040511;28;20654;-72
2021/12/24 12:14:27;;;;;;;10.98;3.60;;;5.70;99.90;;;;;;5030930;28;20246;-70
2021/12/24 12:16:58;;;;;;;6.00;3.50;;;5.60;99.90;;;;;;5022885;28;20197;-72
2021/12/24 12:19:31;;;;;;;12.88;4.38;;;5.60;99.90;;;;;;5053260;28;20209;-71
2021/12/24 12:22:13;;;;;;;6.55;4.07;;;5.50;99.90;;;;;;5047303;28;20255;-72
2021/12/24 12:27:36;;;;;;;8.32;3.75;;;5.50;99.90;;;;;;5028876;28;20195;-72
2021/12/24 12:30:24;;;;;;;7.07;4.15;;;5.50;99.90;;;;;;5049963;28;20243;-72
2021/12/24 12:32:54;;;;;;;8.88;4.20;;;5.50;99.90;;;;;;5051897;28;20224;-72
2021/12/24 12:35:35;;;;;;;5.15;3.60;;;5.40;99.90;;;;;;5051229;28;20227;-72
2021/12/24 12:38:30;;;;;;;4.90;3.60;;;5.40;99.90;;;;;;5050443;28;20192;-71
2021/12/24 12:41:26;;;;;;;5.72;3.53;;;5.40;99.90;;;;;;5049753;28;20196;-72
2021/12/24 12:43:56;;;;;;;6.22;3.45;;;5.40;99.90;;;;;;5049000;28;20277;-72
2021/12/24 12:46:30;;;;;;;5.20;3.58;;;5.40;99.90;;;;;;5028330;28;20403;-70
2021/12/24 12:49:00;;;;;;;5.50;3.13;;;5.40;99.90;;;;;;5064999;28;20582;-72
2021/12/24 12:51:59;;;;;;;4.50;3.35;;;5.40;99.90;;;;;;5005657;28;20278;-71
2021/12/24 12:54:32;;;;;;;5.50;3.30;;;5.40;99.90;;;;;;4957592;28;20634;-71
2021/12/24 12:57:28;;;;;;;7.03;3.60;;;5.40;99.90;;;;;;5051805;28;20197;-71
2021/12/24 13:00:19;;;;;;;3.88;3.28;;;5.40;99.90;;;;;;5034288;28;20270;-72
2021/12/24 13:03:11;;;;;;;4.72;2.92;;;5.40;99.90;;;;;;5060687;28;20203;-73
2021/12/24 13:06:04;;;;;;;7.40;4.40;;;5.40;99.90;;;;;;5048161;28;20212;-71
2021/12/24 13:08:51;;;;;;;5.22;3.42;;;5.40;99.90;;;;;;5046992;28;20227;-73
2021/12/24 13:11:39;;;;;;;4.10;3.15;;;5.40;99.90;;;;;;5051992;28;20210;-72
2021/12/24 13:14:29;;;;;;;7.20;4.03;;;5.40;99.90;;;;;;5031389;28;20310;-72
2021/12/24 13:17:20;;;;;;;4.85;3.28;;;5.40;99.90;;;;;;5051686;28;20197;-72
2021/12/24 13:22:39;;;;;;;7.88;3.00;;;5.40;99.90;;;;;;5042746;28;20217;-72
2021/12/24 13:25:26;;;;;;;7.13;3.35;;;5.40;99.90;;;;;;5044160;28;20227;-73
2021/12/24 13:28:13;;;;;;;6.85;3.13;;;5.40;99.90;;;;;;5048497;28;20549;-72
2021/12/24 13:31:13;;;;;;;3.92;3.28;;;5.40;99.90;;;;;;5035151;28;20235;-71
2021/12/24 13:34:02;;;;;;;5.40;3.40;;;5.40;99.90;;;;;;5043807;28;20364;-72
2021/12/24 13:36:49;;;;;;;5.75;3.10;;;5.40;99.90;;;;;;5041753;28;20895;-72
2021/12/24 13:39:20;;;;;;;5.22;2.70;;;5.40;99.90;;;;;;5047811;28;20208;-73
2021/12/24 13:41:51;;;;;;;7.45;4.40;;;5.50;99.90;;;;;;5046355;28;20671;-73
2021/12/24 13:44:25;;;;;;;3.03;2.70;;;5.40;99.90;;;;;;5041838;28;20278;-70
2021/12/24 13:47:05;;;;;;;7.07;3.22;;;5.50;99.90;;;;;;5046002;28;20909;-72
2021/12/24 13:49:46;;;;;;;3.90;3.45;;;5.40;99.90;;;;;;5043813;28;20216;-71
2021/12/24 13:55:15;;;;;;;5.18;3.55;;;5.50;99.90;;;;;;5034457;28;20340;-72
2021/12/24 13:57:58;;;;;;;6.65;3.50;;;5.50;99.90;;;;;;5041685;28;20524;-72
2021/12/24 14:00:27;;;;;;;3.55;2.90;;;5.50;99.90;;;;;;5038819;28;20215;-72
2021/12/24 14:02:57;;;;;;;3.10;2.80;;;5.50;99.90;;;;;;5046066;28;20310;-71
2021/12/24 14:05:28;;;;;;;5.78;2.42;;;5.50;99.90;;;;;;5058455;28;20289;-72
2021/12/24 14:08:24;;;;;;;4.47;2.92;;;5.50;99.90;;;;;;5046343;28;20885;-73
2021/12/24 14:11:04;;;;;;;3.15;2.85;;;5.50;99.90;;;;;;5034714;28;20616;-72
2021/12/24 14:13:37;;;;;;;5.22;3.20;;;5.50;99.90;;;;;;5031941;28;20208;-71
2021/12/24 14:17:18;;;;;;;3.13;2.60;;;5.50;99.90;;;;;;5029046;28;20225;-72
2021/12/24 14:20:00;;;;;;;6.00;3.35;;;5.50;99.90;;;;;;5042680;28;20227;-73
2021/12/24 14:22:34;;;;;;;3.90;2.67;;;5.50;99.90;;;;;;5003049;28;20197;-70
2021/12/24 14:25:07;;;;;;;4.05;3.17;;;5.50;99.90;;;;;;5049439;28;20224;-73
2021/12/24 14:27:39;;;;;;;4.25;2.53;;;5.50;99.90;;;;;;5049523;28;20203;-73
2021/12/24 14:30:13;;;;;;;3.03;2.40;;;5.50;99.90;;;;;;5023676;28;20223;-73
2021/12/24 14:32:43;;;;;;;5.30;3.60;;;5.50;99.90;;;;;;5061937;28;20212;-72
2021/12/24 14:35:15;;;;;;;3.33;2.40;;;5.50;99.90;;;;;;5047541;28;20897;-71
2021/12/24 14:37:55;;;;;;;2.88;2.33;;;5.50;99.90;;;;;;5022022;28;20266;-72
2021/12/24 14:40:25;;;;;;;3.95;2.95;;;5.50;99.90;;;;;;5025423;28;20219;-74
2021/12/24 14:42:55;;;;;;;3.70;3.17;;;5.50;99.90;;;;;;5053630;28;20244;-73
2021/12/24 14:45:25;;;;;;;3.13;2.40;;;5.50;99.90;;;;;;5045658;28;20220;-72
2021/12/24 14:48:07;;;;;;;3.28;2.30;;;5.50;99.90;;;;;;5054311;28;20215;-73
2021/12/24 14:50:37;;;;;;;6.47;3.10;;;5.50;99.90;;;;;;5056130;28;20321;-74
2021/12/24 14:53:10;;;;;;;3.13;2.33;;;5.60;99.90;;;;;;5050198;28;20239;-72
2021/12/24 14:55:44;;;;;;;3.78;3.15;;;5.50;99.90;;;;;;5050444;28;20753;-71
2021/12/24 14:58:12;;;;;;;3.10;2.70;;;5.50;99.90;;;;;;5051099;28;20254;-73